LIRALIEO

Guest
Details From LIRA - CIAMPINO
To LIEO - OLBIA COSTA SMERALDA
Flight Number -
Tags generated
Created
Modified
Stats Distance 149 nm / 277 km
Max Altitude 16,700 ft / 5,090 m
Waypoints 3
Social Downloads 5
Likes 0
Share VATSIM

Download

Looking for another format? Having issues loading an existing format? Contact us
Advertisement - Login to hide

Notes

Basic altitude profile: - Ascent Rate: 2500ft/min - Ascent Speed: 250kts - Cruise Altitude: 35000ft - Cruise Speed: 420kts - Descent Rate: 1500ft/min - Descent Speed: 250kts Options: - Use NATs: yes - Use PACOTS: yes - Use low airways: yes - Use high airways: yes

Route

LIRA TINTO LIEO

ID Type Via Altitude Latitude Longitude Leg Dist Tot Dist Heading (true) Name
O LIRA APT - 0 ft / 0 m 41.79923˚ 12.59492˚ - 0 nm - CIAMPINO
TINTO FIX - 16,700 ft / 5,090 m 41.47806˚ 11.06778˚ 71 nm 71 nm 255° / 254° -
O LIEO APT - 0 ft / 0 m 40.89866˚ 9.51763˚ 78 nm 149 nm 244° / 243° OLBIA COSTA SMERALDA

Altitude Profile

Advertisement - Login to hide

LIRA

Details ICAO LIRA (CIA)
Name CIAMPINO
Region Italy
Timezone Europe/Rome (UTC+1.0)
Stats Elevation 427 ft / 130 m (AMSL)
Location 41.799228° 12.594917°
Runways 1
Magnetic Variation 3.057° E

METAR

LIRA 131320Z 22007KT 180V260 9999 SCT025 13/06 Q1018

Decode

TAF

TAF LIRA 131100Z 1312/1412 23010KT 9999 SCT025 BECMG 1316/1318 VRB06KT BECMG 1407/1409 24010KT

Decode

Departure Runways

ID Width Length Bearing (true) Bearing (mag) Surface Threshold Offset Overrun Length
15 154 ft / 47 m 7,246 ft / 2,209 m 152.79° 149.73° Asphalt 0 ft / 0 m 0 ft / 0 m
33 154 ft / 47 m 7,246 ft / 2,209 m 332.80° 329.74° Asphalt 0 ft / 0 m 0 ft / 0 m

LIEO

Details ICAO LIEO (OLB)
Name OLBIA COSTA SMERALDA
Region Italy
Timezone Europe/Rome (UTC+1.0)
Stats Elevation 37 ft / 11 m (AMSL)
Location 40.898661° 9.517629°
Runways 1
Magnetic Variation 2.442° E

METAR

LIEO 131320Z 27017KT 9999 FEW030 14/01 Q1020

Decode

TAF

TAF LIEO 131100Z 1312/1412 26018G28KT 9999 SCT040

Decode

Destination Runways

ID Width Length Bearing (true) Bearing (mag) Surface Threshold Offset Overrun Length
06 148 ft / 45 m 8,013 ft / 2,442 m 55.30° 52.86° Asphalt 805 ft / 245 m 180 ft / 55 m
24 148 ft / 45 m 8,013 ft / 2,442 m 235.31° 232.87° Asphalt 495 ft / 151 m 180 ft / 55 m

Approach Navaids

Runway Type Ident Frequency Range Bearing (true) Bearing (mag) Slope Elevation
06 Localiser ISM 109.90 MHz 18 nm / 33 km 55.31° 52.87° - 36 ft / 11 m (AMSL)
06 Glidescope ISM 109.90 MHz 10 nm / 19 km 55.30° 52.86° 3.50° 36 ft / 11 m (AMSL)
06 DME ISM 109.90 MHz 18 nm / 33 km - - - 36 ft / 11 m (AMSL)
24 Localiser IOL 111.30 MHz 20 nm / 37 km 235.31° 232.87° - 36 ft / 11 m (AMSL)
24 Glidescope IOL 111.30 MHz 10 nm / 19 km 235.31° 232.87° 3.00° 36 ft / 11 m (AMSL)
24 DME IOL 111.30 MHz 25 nm / 46 km - - - 36 ft / 11 m (AMSL)

Popular Alternatives